Time;durP1;ratioP1;P1;durP2;ratioP2;P2;SDS_P1;SDS_P2;PMS_P1;PMS_P2;Temp;Humidity;BMP_temperature;BMP_pressure;BME280_temperature;BME280_humidity;BME280_pressure;Samples;Min_cycle;Max_cycle;Signal;HPM_P1;HPM_P2
2021/12/11 00:02:11;;;;;;;25.50;12.57;;;;;;;;;;5058061;28;20060;-68
2021/12/11 00:04:39;;;;;;;21.38;11.60;;;;;;;;;;5046765;28;20088;-68
2021/12/11 00:07:08;;;;;;;24.92;12.23;;;;;;;;;;5044339;28;20041;-68
2021/12/11 00:09:38;;;;;;;26.10;13.13;;;;;;;;;;5048159;28;20538;-68
2021/12/11 00:12:09;;;;;;;23.73;12.73;;;;;;;;;;5045459;28;20057;-68
2021/12/11 00:14:42;;;;;;;23.10;12.45;;;;;;;;;;5061679;28;20040;-67
2021/12/11 00:17:09;;;;;;;27.45;13.70;;;;;;;;;;5045075;28;20132;-68
2021/12/11 00:19:37;;;;;;;26.83;13.65;;;;;;;;;;5046646;28;20040;-68
2021/12/11 00:22:08;;;;;;;25.90;13.85;;;;;;;;;;5043998;28;20729;-68
2021/12/11 00:24:35;;;;;;;25.90;13.13;;;;;;;;;;5045740;28;20130;-68
2021/12/11 00:27:03;;;;;;;24.85;12.40;;;;;;;;;;5049469;28;20406;-69
2021/12/11 00:29:30;;;;;;;28.60;13.50;;;;;;;;;;5063660;28;20119;-68
2021/12/11 00:31:59;;;;;;;28.17;13.52;;;;;;;;;;5053190;28;20057;-68
2021/12/11 00:34:26;;;;;;;24.48;12.77;;;;;;;;;;5067222;28;20033;-68
2021/12/11 00:36:53;;;;;;;29.08;12.60;;;;;;;;;;5066857;28;20071;-69
2021/12/11 00:39:20;;;;;;;32.47;15.82;;;;;;;;;;5051053;28;20048;-68
2021/12/11 00:41:53;;;;;;;28.60;13.75;;;;;;;;;;5052256;28;20059;-68
2021/12/11 00:44:19;;;;;;;30.13;13.55;;;;;;;;;;5063341;28;20062;-68
2021/12/11 00:46:45;;;;;;;31.20;15.73;;;;;;;;;;5067483;28;20402;-68
2021/12/11 00:49:14;;;;;;;36.92;16.30;;;;;;;;;;5051212;28;20608;-68
2021/12/11 00:51:40;;;;;;;;;;;;;;;;;;5048831;28;20045;-68
2021/12/11 00:54:06;;;;;;;30.50;15.15;;;;;;;;;;5063948;28;20361;-68
2021/12/11 00:56:34;;;;;;;36.00;17.35;;;;;;;;;;5065999;28;20559;-68
2021/12/11 00:59:03;;;;;;;33.83;16.98;;;;;;;;;;5050735;28;20078;-68
2021/12/11 01:01:31;;;;;;;25.55;13.82;;;;;;;;;;5048669;28;20487;-68
2021/12/11 01:04:02;;;;;;;25.00;13.85;;;;;;;;;;5048339;28;20041;-68
2021/12/11 01:06:30;;;;;;;26.38;14.13;;;;;;;;;;5048187;28;20049;-68
2021/12/11 01:09:00;;;;;;;26.77;13.82;;;;;;;;;;5066371;28;20056;-68
2021/12/11 01:11:34;;;;;;;25.50;13.95;;;;;;;;;;5067451;28;20048;-68
2021/12/11 01:14:14;;;;;;;24.60;13.35;;;;;;;;;;5067123;28;20102;-68
2021/12/11 01:16:41;;;;;;;27.38;13.13;;;;;;;;;;5062631;28;20080;-68
2021/12/11 01:19:08;;;;;;;25.02;12.80;;;;;;;;;;5049411;28;20138;-68
2021/12/11 01:21:45;;;;;;;21.33;11.23;;;;;;;;;;5047769;28;20384;-68
2021/12/11 01:24:27;;;;;;;20.60;11.43;;;;;;;;;;5048256;28;20170;-67
2021/12/11 01:26:54;;;;;;;19.40;11.35;;;;;;;;;;5052894;28;20501;-67
2021/12/11 01:29:22;;;;;;;19.75;10.48;;;;;;;;;;5067694;28;20143;-67
2021/12/11 01:31:49;;;;;;;26.17;12.55;;;;;;;;;;5066338;28;20044;-67
2021/12/11 01:34:15;;;;;;;23.23;11.73;;;;;;;;;;5066523;28;20051;-68
2021/12/11 01:36:42;;;;;;;25.45;12.50;;;;;;;;;;5060353;28;20120;-68
2021/12/11 01:39:12;;;;;;;26.95;12.77;;;;;;;;;;5047958;28;20041;-68
2021/12/11 01:41:39;;;;;;;22.17;11.80;;;;;;;;;;5048228;28;20060;-68
2021/12/11 01:44:08;;;;;;;24.92;13.05;;;;;;;;;;5046238;28;20049;-68
2021/12/11 01:46:35;;;;;;;23.17;11.27;;;;;;;;;;5053405;28;20406;-68
2021/12/11 01:49:02;;;;;;;21.50;10.65;;;;;;;;;;5066566;28;20052;-68
2021/12/11 01:51:29;;;;;;;20.17;11.00;;;;;;;;;;5065859;28;20041;-69
2021/12/11 01:53:59;;;;;;;20.77;11.20;;;;;;;;;;5061648;28;20041;-69
2021/12/11 01:56:27;;;;;;;21.70;11.70;;;;;;;;;;5065376;28;20048;-69
2021/12/11 01:58:58;;;;;;;22.08;11.95;;;;;;;;;;5066579;28;20190;-68
2021/12/11 02:01:28;;;;;;;29.63;13.52;;;;;;;;;;5066053;28;20040;-68
2021/12/11 02:03:55;;;;;;;23.08;11.15;;;;;;;;;;5066417;28;20121;-69
2021/12/11 02:06:21;;;;;;;21.33;11.63;;;;;;;;;;5057567;28;20215;-69
2021/12/11 02:08:47;;;;;;;22.65;11.40;;;;;;;;;;5066493;28;20552;-68
2021/12/11 02:11:16;;;;;;;23.92;11.60;;;;;;;;;;5071265;22;20059;-68
2021/12/11 02:13:48;;;;;;;22.98;11.13;;;;;;;;;;5025898;28;20042;-69
2021/12/11 02:16:31;;;;;;;22.50;12.23;;;;;;;;;;5034379;28;20170;-69
2021/12/11 02:19:02;;;;;;;22.58;11.50;;;;;;;;;;5044533;28;20048;-69
2021/12/11 02:21:31;;;;;;;25.83;11.93;;;;;;;;;;5045750;28;20041;-69
2021/12/11 02:24:03;;;;;;;24.33;12.18;;;;;;;;;;5045909;28;20033;-69
2021/12/11 02:26:30;;;;;;;21.42;12.18;;;;;;;;;;5035907;28;20171;-69
2021/12/11 02:29:00;;;;;;;22.98;12.25;;;;;;;;;;5028426;28;20052;-69
2021/12/11 02:31:33;;;;;;;26.90;12.25;;;;;;;;;;5044086;28;20048;-69
2021/12/11 02:34:08;;;;;;;22.52;11.98;;;;;;;;;;5045951;28;20037;-69
2021/12/11 02:36:37;;;;;;;21.42;11.23;;;;;;;;;;5044157;28;20041;-69
2021/12/11 02:39:06;;;;;;;24.45;11.10;;;;;;;;;;5044179;28;20045;-69
2021/12/11 02:41:37;;;;;;;22.48;10.77;;;;;;;;;;5036951;28;20053;-68
2021/12/11 02:44:07;;;;;;;25.23;12.13;;;;;;;;;;5027029;28;20487;-68
2021/12/11 02:46:37;;;;;;;23.45;10.93;;;;;;;;;;5041343;28;20402;-69
2021/12/11 02:49:06;;;;;;;25.83;10.75;;;;;;;;;;5044931;28;20145;-69
2021/12/11 02:51:32;;;;;;;;;;;;;;;;;;5045406;28;20052;-69
2021/12/11 02:54:01;;;;;;;24.08;10.65;;;;;;;;;;5045912;28;20003;-69
2021/12/11 02:56:27;;;;;;;;;;;;;;;;;;5032301;28;20045;-69
2021/12/11 02:58:57;;;;;;;27.23;11.27;;;;;;;;;;5045506;28;19927;-69
2021/12/11 03:01:28;;;;;;;22.30;10.27;;;;;;;;;;5045425;28;20112;-69
2021/12/11 03:04:01;;;;;;;21.98;10.48;;;;;;;;;;5045067;28;20041;-69
2021/12/11 03:06:36;;;;;;;19.00;10.75;;;;;;;;;;5032401;28;20044;-67
2021/12/11 03:09:03;;;;;;;23.83;11.60;;;;;;;;;;5044064;28;20056;-67
2021/12/11 03:11:30;;;;;;;20.58;10.55;;;;;;;;;;5045167;28;20056;-68
2021/12/11 03:13:57;;;;;;;21.35;11.38;;;;;;;;;;5045039;28;20049;-69
2021/12/11 03:16:25;;;;;;;18.45;9.60;;;;;;;;;;5028671;28;20113;-69
2021/12/11 03:18:51;;;;;;;22.77;10.27;;;;;;;;;;5026440;28;20548;-69
2021/12/11 03:21:18;;;;;;;20.70;9.77;;;;;;;;;;5025857;28;20075;-69
2021/12/11 03:23:44;;;;;;;20.20;9.20;;;;;;;;;;5026476;28;20574;-69
2021/12/11 03:26:11;;;;;;;20.70;9.90;;;;;;;;;;5042250;28;20059;-68
2021/12/11 03:28:37;;;;;;;18.60;10.02;;;;;;;;;;5045293;28;20079;-69
2021/12/11 03:31:05;;;;;;;20.02;10.85;;;;;;;;;;5044183;28;20045;-69
2021/12/11 03:33:33;;;;;;;31.75;10.98;;;;;;;;;;5044639;28;20653;-69
2021/12/11 03:36:00;;;;;;;19.50;10.27;;;;;;;;;;5025777;28;20388;-68
2021/12/11 03:38:26;;;;;;;19.98;9.90;;;;;;;;;;5041058;28;20045;-68
2021/12/11 03:40:53;;;;;;;19.40;10.00;;;;;;;;;;5042662;28;20049;-69
2021/12/11 03:43:22;;;;;;;20.75;10.05;;;;;;;;;;5029168;28;20442;-68
2021/12/11 03:45:49;;;;;;;22.55;10.35;;;;;;;;;;5026349;28;20041;-68
2021/12/11 03:48:18;;;;;;;19.67;9.73;;;;;;;;;;5025261;28;20556;-68
2021/12/11 03:50:44;;;;;;;;;;;;;;;;;;5025491;28;20038;-68
2021/12/11 03:53:11;;;;;;;18.38;9.00;;;;;;;;;;5035057;28;19927;-68
2021/12/11 03:55:39;;;;;;;18.65;10.25;;;;;;;;;;5026587;28;20037;-68
2021/12/11 03:58:07;;;;;;;20.65;11.00;;;;;;;;;;5025358;28;20398;-69
2021/12/11 04:00:36;;;;;;;22.73;10.80;;;;;;;;;;5025026;28;20041;-68
2021/12/11 04:03:05;;;;;;;;;;;;;;;;;;5024817;28;20465;-68
2021/12/11 04:05:32;;;;;;;20.33;9.82;;;;;;;;;;5023493;28;20388;-67
2021/12/11 04:07:59;;;;;;;17.60;9.57;;;;;;;;;;5027028;28;20120;-67
2021/12/11 04:10:27;;;;;;;20.88;9.55;;;;;;;;;;5044147;28;20478;-68
2021/12/11 04:12:55;;;;;;;24.70;10.43;;;;;;;;;;5043808;28;20053;-68
2021/12/11 04:15:21;;;;;;;20.45;10.07;;;;;;;;;;5024988;28;20669;-69
2021/12/11 04:17:48;;;;;;;21.13;10.10;;;;;;;;;;5026125;28;20029;-67
2021/12/11 04:20:16;;;;;;;23.20;10.10;;;;;;;;;;5025727;28;20057;-68
2021/12/11 04:22:43;;;;;;;24.70;10.38;;;;;;;;;;5023593;28;20053;-68
2021/12/11 04:25:10;;;;;;;22.30;10.18;;;;;;;;;;5036791;28;20029;-68
2021/12/11 04:27:37;;;;;;;23.65;10.40;;;;;;;;;;5025440;28;20034;-68
2021/12/11 04:30:08;;;;;;;20.83;9.38;;;;;;;;;;5025112;28;20111;-68
2021/12/11 04:32:34;;;;;;;21.42;9.73;;;;;;;;;;5025024;28;20112;-68
2021/12/11 04:35:01;;;;;;;24.60;10.15;;;;;;;;;;5044194;28;20106;-68
2021/12/11 04:37:30;;;;;;;20.42;9.45;;;;;;;;;;5042999;28;20056;-68
2021/12/11 04:40:01;;;;;;;18.65;9.32;;;;;;;;;;5043655;28;20056;-68
2021/12/11 04:44:55;;;;;;;26.00;10.68;;;;;;;;;;5025340;28;20048;-68
2021/12/11 04:50:16;;;;;;;24.13;9.23;;;;;;;;;;5041139;28;20083;-68
2021/12/11 04:52:54;;;;;;;21.60;9.50;;;;;;;;;;5028553;28;20120;-68
2021/12/11 04:55:36;;;;;;;18.58;9.88;;;;;;;;;;5024235;28;20414;-69
2021/12/11 04:58:21;;;;;;;24.60;11.35;;;;;;;;;;5026088;28;20049;-68
2021/12/11 05:11:33;;;;;;;23.45;11.68;;;;;;;;;;5036346;28;20073;-68
2021/12/11 05:14:00;;;;;;;25.83;11.57;;;;;;;;;;5031238;28;20087;-68
2021/12/11 05:16:26;;;;;;;25.63;12.38;;;;;;;;;;5035107;28;20158;-69
2021/12/11 05:18:53;;;;;;;24.13;12.10;;;;;;;;;;5046623;28;20048;-68
2021/12/11 05:21:19;;;;;;;23.30;12.35;;;;;;;;;;5045627;28;21017;-68
2021/12/11 05:23:47;;;;;;;23.27;10.90;;;;;;;;;;5032303;28;20122;-69
2021/12/11 05:26:13;;;;;;;25.35;12.23;;;;;;;;;;5028064;28;20621;-69
2021/12/11 05:28:40;;;;;;;22.73;11.32;;;;;;;;;;5028002;28;20766;-68
2021/12/11 05:31:07;;;;;;;22.60;11.90;;;;;;;;;;5028232;28;20107;-68
2021/12/11 05:33:33;;;;;;;21.50;11.00;;;;;;;;;;5041593;28;20406;-68
2021/12/11 05:36:00;;;;;;;23.17;11.80;;;;;;;;;;5045884;28;20700;-68
2021/12/11 05:38:26;;;;;;;20.85;11.02;;;;;;;;;;5046589;28;20630;-70
2021/12/11 05:40:56;;;;;;;27.25;11.98;;;;;;;;;;5046950;28;20056;-69
2021/12/11 05:43:22;;;;;;;23.23;11.35;;;;;;;;;;5031343;28;20422;-69
2021/12/11 05:45:48;;;;;;;25.23;11.40;;;;;;;;;;5028368;28;20717;-66
2021/12/11 05:48:15;;;;;;;19.40;10.23;;;;;;;;;;5026582;28;20509;-68
2021/12/11 05:50:44;;;;;;;21.20;10.55;;;;;;;;;;5027337;28;20052;-68
2021/12/11 05:53:10;;;;;;;25.98;11.80;;;;;;;;;;5041641;28;20044;-68
2021/12/11 05:55:38;;;;;;;21.98;11.60;;;;;;;;;;5040793;28;20041;-69
2021/12/11 05:58:11;;;;;;;27.27;12.82;;;;;;;;;;5027922;28;20558;-67
2021/12/11 06:00:40;;;;;;;24.92;11.98;;;;;;;;;;5028064;28;20067;-68
2021/12/11 06:03:07;;;;;;;28.00;11.70;;;;;;;;;;5041029;28;20037;-67
2021/12/11 06:05:33;;;;;;;23.83;11.07;;;;;;;;;;5045575;28;20048;-68
2021/12/11 06:08:00;;;;;;;22.40;11.23;;;;;;;;;;5045783;28;20498;-67
2021/12/11 06:10:27;;;;;;;24.92;10.93;;;;;;;;;;5046447;28;20045;-68
2021/12/11 06:12:55;;;;;;;26.17;12.02;;;;;;;;;;5030547;28;20136;-67
2021/12/11 06:15:22;;;;;;;31.87;12.03;;;;;;;;;;5027372;28;20372;-68
2021/12/11 06:17:48;;;;;;;21.48;11.57;;;;;;;;;;5043704;28;20115;-68
2021/12/11 06:20:17;;;;;;;22.35;10.13;;;;;;;;;;5026344;28;20040;-67
2021/12/11 06:22:43;;;;;;;25.38;12.10;;;;;;;;;;5026080;28;20077;-68
2021/12/11 06:25:12;;;;;;;19.77;10.95;;;;;;;;;;5025676;28;20092;-68
2021/12/11 06:27:38;;;;;;;21.95;11.50;;;;;;;;;;5026785;28;20049;-67
2021/12/11 06:30:05;;;;;;;29.40;12.25;;;;;;;;;;5034128;28;20076;-68
2021/12/11 06:32:31;;;;;;;22.85;12.25;;;;;;;;;;5025382;28;20084;-68
2021/12/11 06:34:58;;;;;;;23.95;12.15;;;;;;;;;;5024975;28;20052;-68
2021/12/11 06:37:25;;;;;;;23.08;11.98;;;;;;;;;;5027880;28;20105;-68
2021/12/11 06:39:51;;;;;;;23.10;11.02;;;;;;;;;;5046059;28;20045;-69
2021/12/11 06:42:19;;;;;;;23.88;11.07;;;;;;;;;;5046036;28;20033;-68
2021/12/11 06:44:45;;;;;;;24.35;12.35;;;;;;;;;;5044187;28;20044;-67
2021/12/11 06:47:13;;;;;;;25.33;11.65;;;;;;;;;;5045011;28;20092;-68
2021/12/11 06:49:40;;;;;;;36.57;12.67;;;;;;;;;;5026372;28;20037;-68
2021/12/11 06:52:09;;;;;;;24.35;11.80;;;;;;;;;;5025770;28;20831;-67
2021/12/11 06:54:35;;;;;;;20.80;11.10;;;;;;;;;;5039420;28;20074;-67
2021/12/11 06:57:02;;;;;;;24.02;12.43;;;;;;;;;;5038475;28;20049;-68
2021/12/11 06:59:28;;;;;;;23.33;10.75;;;;;;;;;;5028592;28;20741;-68
2021/12/11 07:01:54;;;;;;;21.40;11.38;;;;;;;;;;5030910;28;20402;-69
2021/12/11 07:04:21;;;;;;;24.08;11.90;;;;;;;;;;5045781;28;20047;-69
2021/12/11 07:06:49;;;;;;;23.20;10.95;;;;;;;;;;5035013;28;20483;-69
2021/12/11 07:09:16;;;;;;;25.90;11.75;;;;;;;;;;5036211;28;20041;-69
2021/12/11 07:11:44;;;;;;;22.80;10.48;;;;;;;;;;5046736;28;20037;-69
2021/12/11 07:14:11;;;;;;;20.23;11.13;;;;;;;;;;5047621;28;20341;-69
2021/12/11 07:16:37;;;;;;;24.80;11.85;;;;;;;;;;5042263;28;20052;-69
2021/12/11 07:19:05;;;;;;;24.52;11.88;;;;;;;;;;5044464;28;20052;-69
2021/12/11 07:21:31;;;;;;;24.25;10.27;;;;;;;;;;5043944;28;20449;-68
2021/12/11 07:23:58;;;;;;;27.38;11.52;;;;;;;;;;5045882;28;20084;-68
2021/12/11 07:26:31;;;;;;;22.80;11.50;;;;;;;;;;5036159;28;20041;-68
2021/12/11 07:28:59;;;;;;;21.23;10.48;;;;;;;;;;5060681;28;20498;-69
2021/12/11 07:31:25;;;;;;;25.05;11.75;;;;;;;;;;5044279;28;20052;-68
2021/12/11 07:33:52;;;;;;;21.48;10.63;;;;;;;;;;5044713;28;20486;-73
2021/12/11 07:36:18;;;;;;;25.30;11.82;;;;;;;;;;5046486;28;20047;-66
2021/12/11 07:38:44;;;;;;;25.42;11.60;;;;;;;;;;5044986;28;20094;-67
2021/12/11 07:41:12;;;;;;;22.58;10.68;;;;;;;;;;5049319;28;20040;-67
2021/12/11 07:43:39;;;;;;;23.98;11.15;;;;;;;;;;5046989;28;20060;-67
2021/12/11 07:46:07;;;;;;;27.65;11.90;;;;;;;;;;5044335;28;20492;-67
2021/12/11 07:48:33;;;;;;;19.60;10.95;;;;;;;;;;5043702;28;20043;-67
2021/12/11 07:51:00;;;;;;;25.95;11.48;;;;;;;;;;5044458;28;20444;-67
2021/12/11 07:53:26;;;;;;;24.38;11.45;;;;;;;;;;5044508;28;20450;-67
2021/12/11 07:55:53;;;;;;;21.35;10.52;;;;;;;;;;5044751;28;20044;-68
2021/12/11 07:58:20;;;;;;;24.30;11.65;;;;;;;;;;5045841;28;20080;-67
2021/12/11 08:00:47;;;;;;;23.10;11.52;;;;;;;;;;5043492;28;20053;-67
2021/12/11 08:03:14;;;;;;;25.13;11.38;;;;;;;;;;5044258;28;20033;-67
2021/12/11 08:05:41;;;;;;;22.42;11.98;;;;;;;;;;5043616;28;20041;-67
2021/12/11 08:08:10;;;;;;;29.42;12.18;;;;;;;;;;5049120;28;20399;-70
2021/12/11 08:10:36;;;;;;;26.92;13.02;;;;;;;;;;5044561;28;20048;-67
2021/12/11 08:13:04;;;;;;;25.88;12.13;;;;;;;;;;5042741;28;20077;-67
2021/12/11 08:15:31;;;;;;;24.05;11.50;;;;;;;;;;5042882;28;20135;-67
2021/12/11 08:17:57;;;;;;;24.70;12.27;;;;;;;;;;5043242;28;20029;-67
2021/12/11 08:20:26;;;;;;;26.63;12.32;;;;;;;;;;5041532;28;20044;-70
2021/12/11 08:22:53;;;;;;;22.77;11.75;;;;;;;;;;5041953;28;20131;-69
2021/12/11 08:25:21;;;;;;;24.13;12.40;;;;;;;;;;5032917;28;20041;-69
2021/12/11 08:27:48;;;;;;;24.08;12.82;;;;;;;;;;5033481;28;20041;-68
2021/12/11 08:30:15;;;;;;;26.35;13.00;;;;;;;;;;5033469;28;20037;-68
2021/12/11 08:32:41;;;;;;;27.48;13.80;;;;;;;;;;5044020;28;20040;-69
2021/12/11 08:35:09;;;;;;;27.42;14.93;;;;;;;;;;5036290;28;20124;-69
2021/12/11 08:37:36;;;;;;;28.50;13.77;;;;;;;;;;5029007;28;20414;-69
2021/12/11 08:40:04;;;;;;;25.45;12.52;;;;;;;;;;5028220;28;20049;-69
2021/12/11 08:42:30;;;;;;;27.40;14.03;;;;;;;;;;5029797;28;20475;-69
2021/12/11 08:45:05;;;;;;;27.08;12.30;;;;;;;;;;5025300;28;20048;-69
2021/12/11 08:47:31;;;;;;;26.40;12.35;;;;;;;;;;5015421;28;20045;-69
2021/12/11 08:49:57;;;;;;;24.45;12.25;;;;;;;;;;5059326;28;20128;-69
2021/12/11 08:52:26;;;;;;;26.63;12.90;;;;;;;;;;5031539;28;20050;-69
2021/12/11 08:54:53;;;;;;;28.95;13.57;;;;;;;;;;5058097;28;20502;-69
2021/12/11 08:57:21;;;;;;;29.75;13.90;;;;;;;;;;5036609;28;20056;-69
2021/12/11 08:59:49;;;;;;;28.67;13.45;;;;;;;;;;5034215;28;20045;-70
2021/12/11 09:02:19;;;;;;;24.67;12.50;;;;;;;;;;5032418;28;20497;-70
2021/12/11 09:04:49;;;;;;;27.85;14.15;;;;;;;;;;5040469;28;20041;-70
2021/12/11 09:07:21;;;;;;;25.02;13.30;;;;;;;;;;5039591;28;20175;-71
2021/12/11 09:09:54;;;;;;;30.33;14.30;;;;;;;;;;5043784;28;20487;-70
2021/12/11 09:12:30;;;;;;;31.35;14.93;;;;;;;;;;5036674;28;20054;-69
2021/12/11 09:15:02;;;;;;;31.33;14.75;;;;;;;;;;5028678;28;20057;-68
2021/12/11 09:17:33;;;;;;;33.67;14.35;;;;;;;;;;5047283;28;20130;-69
2021/12/11 09:20:06;;;;;;;38.97;15.57;;;;;;;;;;5036410;28;20069;-69
2021/12/11 09:22:35;;;;;;;28.75;14.52;;;;;;;;;;5044554;28;20091;-69
2021/12/11 09:25:06;;;;;;;29.20;16.13;;;;;;;;;;5041488;28;20126;-69
2021/12/11 09:27:36;;;;;;;30.92;16.40;;;;;;;;;;5034482;28;20144;-71
2021/12/11 09:30:12;;;;;;;33.92;16.73;;;;;;;;;;5036731;28;20041;-71
2021/12/11 09:32:38;;;;;;;40.92;16.27;;;;;;;;;;5039723;28;20060;-71
2021/12/11 09:35:10;;;;;;;27.75;14.60;;;;;;;;;;5039126;28;20048;-71
2021/12/11 09:37:37;;;;;;;43.90;16.10;;;;;;;;;;5041309;28;20068;-71
2021/12/11 09:40:08;;;;;;;32.63;16.58;;;;;;;;;;5039975;28;20048;-71
2021/12/11 09:42:34;;;;;;;33.28;17.00;;;;;;;;;;5037275;28;20041;-72
2021/12/11 09:45:08;;;;;;;33.28;17.35;;;;;;;;;;5036985;28;20099;-71
2021/12/11 09:47:39;;;;;;;36.28;17.33;;;;;;;;;;5040180;28;20051;-72
2021/12/11 09:50:09;;;;;;;38.08;17.05;;;;;;;;;;5042389;28;20094;-71
2021/12/11 09:52:36;;;;;;;32.78;16.52;;;;;;;;;;5038660;28;20611;-71
2021/12/11 09:55:09;;;;;;;31.75;15.45;;;;;;;;;;5040574;28;20044;-71
2021/12/11 09:57:36;;;;;;;36.65;16.63;;;;;;;;;;5037365;28;20041;-73
2021/12/11 10:00:07;;;;;;;35.55;17.02;;;;;;;;;;5040894;28;20120;-74
2021/12/11 10:02:34;;;;;;;35.30;17.38;;;;;;;;;;5041047;28;20067;-76
2021/12/11 10:05:04;;;;;;;37.22;16.90;;;;;;;;;;5042436;28;20736;-77
2021/12/11 10:07:36;;;;;;;31.60;18.55;;;;;;;;;;5041385;28;20139;-78
2021/12/11 10:10:13;;;;;;;35.40;17.95;;;;;;;;;;5031917;28;20658;-71
2021/12/11 10:12:42;;;;;;;36.65;16.80;;;;;;;;;;5023692;28;20095;-73
2021/12/11 10:15:11;;;;;;;42.22;18.08;;;;;;;;;;5034627;28;20041;-76
2021/12/11 10:17:41;;;;;;;34.80;17.05;;;;;;;;;;5028933;28;20536;-75
2021/12/11 10:20:20;;;;;;;35.30;17.20;;;;;;;;;;5037937;28;20132;-76
2021/12/11 10:22:47;;;;;;;30.63;16.42;;;;;;;;;;5041127;28;20094;-75
2021/12/11 10:25:18;;;;;;;38.90;18.60;;;;;;;;;;5042536;28;20049;-75
2021/12/11 10:27:45;;;;;;;40.65;17.83;;;;;;;;;;5041403;28;20443;-75
2021/12/11 10:30:13;;;;;;;35.65;17.65;;;;;;;;;;5042408;28;20289;-74
2021/12/11 10:32:40;;;;;;;44.08;17.70;;;;;;;;;;5041393;28;20045;-74
2021/12/11 10:35:10;;;;;;;36.45;17.65;;;;;;;;;;5038535;28;20120;-71
2021/12/11 10:37:37;;;;;;;38.75;18.63;;;;;;;;;;5037812;28;20033;-70
2021/12/11 10:40:07;;;;;;;32.67;17.73;;;;;;;;;;5041994;28;20049;-70
2021/12/11 10:42:33;;;;;;;31.52;17.33;;;;;;;;;;5039494;28;20123;-71
2021/12/11 10:44:59;;;;;;;33.65;17.13;;;;;;;;;;5040850;28;20135;-70
2021/12/11 10:47:29;;;;;;;37.50;18.33;;;;;;;;;;5041161;28;20045;-71
2021/12/11 10:49:56;;;;;;;40.65;17.80;;;;;;;;;;5041002;28;20064;-70
2021/12/11 10:52:24;;;;;;;35.95;18.10;;;;;;;;;;5041749;28;20049;-70
2021/12/11 10:54:51;;;;;;;36.40;17.33;;;;;;;;;;5028834;28;20766;-71
2021/12/11 10:57:18;;;;;;;39.17;20.13;;;;;;;;;;5029756;28;20572;-71
2021/12/11 10:59:46;;;;;;;44.78;20.48;;;;;;;;;;5039964;28;20296;-71
2021/12/11 11:08:43;;;;;;;37.60;19.52;;;;;;;;;;5028883;28;20395;-69
2021/12/11 11:21:58;;;;;;;38.33;17.90;;;;;;;;;;5037859;28;20131;-71
2021/12/11 11:24:43;;;;;;;32.45;17.63;;;;;;;;;;5033514;28;20084;-71
2021/12/11 11:30:34;;;;;;;38.22;19.42;;;;;;;;;;5032075;28;20094;-71
2021/12/11 11:33:02;;;;;;;45.65;20.58;;;;;;;;;;5034330;28;20659;-70
2021/12/11 11:35:30;;;;;;;41.42;20.33;;;;;;;;;;5033292;28;20099;-70
2021/12/11 11:37:58;;;;;;;39.17;19.75;;;;;;;;;;5041779;28;20387;-71
2021/12/11 11:40:28;;;;;;;36.08;18.58;;;;;;;;;;5040782;28;20410;-70
2021/12/11 11:43:12;;;;;;;38.22;20.98;;;;;;;;;;5040261;28;20055;-70
2021/12/11 11:45:40;;;;;;;44.40;19.42;;;;;;;;;;5033881;28;20829;-69
2021/12/11 11:48:07;;;;;;;38.65;20.35;;;;;;;;;;5035889;28;20110;-71
2021/12/11 11:50:44;;;;;;;43.50;18.67;;;;;;;;;;5040767;28;20148;-70
2021/12/11 11:53:12;;;;;;;39.85;18.77;;;;;;;;;;5043879;28;20552;-69
2021/12/11 11:55:42;;;;;;;37.33;18.88;;;;;;;;;;5042416;28;20041;-69
2021/12/11 11:58:09;;;;;;;35.95;18.42;;;;;;;;;;5040653;28;20045;-69
2021/12/11 12:06:40;;;;;;;35.00;17.80;;;;;;;;;;5028206;28;20056;-69
2021/12/11 12:09:08;;;;;;;37.67;17.65;;;;;;;;;;5025365;28;20037;-72
2021/12/11 12:11:35;;;;;;;31.00;16.65;;;;;;;;;;5032035;28;20048;-71
2021/12/11 12:14:03;;;;;;;39.78;17.25;;;;;;;;;;5034835;28;20511;-71
2021/12/11 12:16:31;;;;;;;45.07;19.10;;;;;;;;;;5037229;28;20091;-71
2021/12/11 12:18:58;;;;;;;41.08;21.17;;;;;;;;;;5035942;28;20554;-71
2021/12/11 12:21:24;;;;;;;40.08;19.02;;;;;;;;;;5032995;28;20128;-71
2021/12/11 12:23:50;;;;;;;39.38;19.00;;;;;;;;;;5034788;28;20037;-71
2021/12/11 12:26:19;;;;;;;39.53;18.95;;;;;;;;;;5037892;28;20033;-71
2021/12/11 12:28:45;;;;;;;45.20;19.23;;;;;;;;;;5036099;28;20458;-69
2021/12/11 12:31:15;;;;;;;44.15;20.05;;;;;;;;;;5036297;28;20048;-68
2021/12/11 12:33:43;;;;;;;37.28;17.23;;;;;;;;;;5034230;28;20099;-67
2021/12/11 12:36:09;;;;;;;40.33;17.77;;;;;;;;;;5036803;28;20033;-67
2021/12/11 12:38:36;;;;;;;38.90;17.75;;;;;;;;;;5036884;28;20049;-67
2021/12/11 12:41:06;;;;;;;42.33;18.17;;;;;;;;;;5031131;28;20080;-67
2021/12/11 12:46:13;;;;;;;33.83;16.77;;;;;;;;;;5035779;28;20040;-68
2021/12/11 12:48:39;;;;;;;38.03;18.27;;;;;;;;;;5035967;28;20770;-69
2021/12/11 12:51:07;;;;;;;36.42;17.75;;;;;;;;;;5034067;28;20045;-69
2021/12/11 12:53:34;;;;;;;33.10;17.25;;;;;;;;;;5037133;28;20043;-68
2021/12/11 12:56:03;;;;;;;36.22;17.63;;;;;;;;;;5032204;28;20049;-69
2021/12/11 12:58:31;;;;;;;38.58;16.58;;;;;;;;;;5033582;28;20202;-68
2021/12/11 13:00:57;;;;;;;;;;;;;;;;;;5036061;28;20045;-68
2021/12/11 13:03:26;;;;;;;49.80;23.70;;;;;;;;;;5037428;28;19936;-68
2021/12/11 13:05:55;;;;;;;45.90;20.52;;;;;;;;;;5034072;28;20052;-69
2021/12/11 13:08:24;;;;;;;32.65;16.10;;;;;;;;;;5034442;28;20400;-68
2021/12/11 13:10:53;;;;;;;35.05;15.23;;;;;;;;;;5033828;28;20048;-68
2021/12/11 13:13:21;;;;;;;44.35;18.63;;;;;;;;;;5031347;28;20059;-67
2021/12/11 13:15:47;;;;;;;;;;;;;;;;;;5036770;28;20549;-68
2021/12/11 13:18:16;;;;;;;40.03;15.98;;;;;;;;;;5036690;28;19925;-69
2021/12/11 13:20:44;;;;;;;35.40;16.88;;;;;;;;;;5035677;28;20509;-68
2021/12/11 13:23:11;;;;;;;31.05;15.27;;;;;;;;;;5033104;28;20071;-68
2021/12/11 13:25:41;;;;;;;33.47;16.27;;;;;;;;;;5034595;28;20108;-68
2021/12/11 13:28:09;;;;;;;33.80;17.48;;;;;;;;;;5036410;28;20454;-68
2021/12/11 13:30:38;;;;;;;27.45;14.70;;;;;;;;;;5033291;28;20040;-69
2021/12/11 13:33:05;;;;;;;;;;;;;;;;;;5036006;28;20487;-68
2021/12/11 13:35:33;;;;;;;34.97;16.00;;;;;;;;;;5039172;28;19921;-68
2021/12/11 13:38:00;;;;;;;38.67;16.05;;;;;;;;;;5037984;28;20084;-69
2021/12/11 13:40:26;;;;;;;33.78;15.93;;;;;;;;;;5040484;28;20131;-68
2021/12/11 13:42:53;;;;;;;33.40;16.10;;;;;;;;;;5039554;28;20697;-69
2021/12/11 13:45:21;;;;;;;44.97;17.48;;;;;;;;;;5040542;28;20499;-68
2021/12/11 13:47:48;;;;;;;37.42;17.35;;;;;;;;;;5036580;28;20554;-68
2021/12/11 13:50:30;;;;;;;34.50;15.75;;;;;;;;;;5037676;28;20447;-68
2021/12/11 13:52:56;;;;;;;33.90;16.73;;;;;;;;;;5036276;28;20041;-68
2021/12/11 13:55:23;;;;;;;40.80;16.83;;;;;;;;;;5037470;28;20049;-67
2021/12/11 13:57:49;;;;;;;44.63;16.48;;;;;;;;;;5038375;28;20052;-68
2021/12/11 14:00:18;;;;;;;36.58;16.63;;;;;;;;;;5038382;28;20044;-68
2021/12/11 14:02:44;;;;;;;34.65;17.48;;;;;;;;;;5037671;28;20090;-68
2021/12/11 14:05:11;;;;;;;36.72;16.33;;;;;;;;;;5039516;28;20158;-68
2021/12/11 14:07:38;;;;;;;34.75;16.48;;;;;;;;;;5037190;28;20091;-68
2021/12/11 14:10:19;;;;;;;35.65;16.58;;;;;;;;;;5040271;28;20053;-69
2021/12/11 14:12:46;;;;;;;35.75;16.00;;;;;;;;;;5037455;28;20063;-69
2021/12/11 14:15:12;;;;;;;35.08;15.70;;;;;;;;;;5038755;28;20040;-68
2021/12/11 14:17:39;;;;;;;40.40;17.23;;;;;;;;;;5038844;28;20052;-68
2021/12/11 14:20:05;;;;;;;34.13;16.38;;;;;;;;;;5039026;28;20037;-68
2021/12/11 14:22:34;;;;;;;36.70;15.77;;;;;;;;;;5037137;28;20128;-69
2021/12/11 14:25:00;;;;;;;41.35;17.77;;;;;;;;;;5038781;28;20045;-68
2021/12/11 14:27:26;;;;;;;36.67;17.27;;;;;;;;;;5040487;28;20085;-69
2021/12/11 14:29:54;;;;;;;36.53;16.65;;;;;;;;;;5035612;28;20065;-69
2021/12/11 14:32:25;;;;;;;41.45;18.85;;;;;;;;;;5038933;28;20051;-68
2021/12/11 14:34:51;;;;;;;41.85;17.75;;;;;;;;;;5036476;28;20056;-74
2021/12/11 14:37:17;;;;;;;47.97;18.92;;;;;;;;;;5040118;28;20033;-68
2021/12/11 14:39:47;;;;;;;39.00;18.15;;;;;;;;;;5040876;28;20403;-68
2021/12/11 14:42:16;;;;;;;36.53;17.58;;;;;;;;;;5036849;28;20045;-68
2021/12/11 14:44:43;;;;;;;42.28;18.38;;;;;;;;;;5037032;28;20081;-68
2021/12/11 14:47:10;;;;;;;32.25;16.55;;;;;;;;;;5039410;28;20223;-68
2021/12/11 14:49:36;;;;;;;37.47;16.58;;;;;;;;;;5039486;28;20056;-68
2021/12/11 14:52:04;;;;;;;35.67;17.60;;;;;;;;;;5038974;28;20434;-68
2021/12/11 14:54:30;;;;;;;36.05;17.90;;;;;;;;;;5038573;28;20494;-69
2021/12/11 14:56:57;;;;;;;32.65;17.90;;;;;;;;;;5038311;28;20056;-69
2021/12/11 14:59:27;;;;;;;38.17;17.38;;;;;;;;;;5040396;28;20043;-69
2021/12/11 15:01:55;;;;;;;40.53;17.33;;;;;;;;;;5035763;28;20398;-69
2021/12/11 15:04:25;;;;;;;36.78;17.50;;;;;;;;;;5034625;28;20415;-71
2021/12/11 15:06:52;;;;;;;40.25;18.65;;;;;;;;;;5038293;28;20604;-69
2021/12/11 15:09:18;;;;;;;43.88;18.70;;;;;;;;;;5039677;28;20044;-68
2021/12/11 15:11:46;;;;;;;38.53;19.90;;;;;;;;;;5039204;28;20040;-67
2021/12/11 15:14:15;;;;;;;38.30;19.30;;;;;;;;;;5035978;28;20060;-69